Skip to main content

NOAA/GLERL Met Station at Muskegon, MI

Previous 5 days (top of hour only)
See also Previous 3 Hours (2 minute increments)
Jump down to Data
Switch to [English][Metric]
Zoom: Click and drag, Pan: shift-click and drag, Unzoom: double-click, Unzoom All






Note: Speed = mean wind during 2-minute period at top of hour,
Gust = max wind during 2-minute period at top of hour,
Peak = max wind during entire hour.
• See also 5-day windrose plot


NOAA/GLERL Met Station at Muskegon, MI

Previous 5 days (top of hour only)
See also Previous 3 Hours (2 minute increments)
Jump up to Graphs
Switch to [English][Metric]
                  Wind  Wind  Wind   Air   Dew   Rel     Sta   PAR
                   Spd   Gst   Dir  Temp    Pt   Hum    Pres uE/m2/
YYYY-MM-DD   EDT   kts   kts   deg     F     F     %   in Hg   sec
2021-10-24 00:00 -99.0 -99.0   -99   0.0   0.0   0.0    0.00     0
2021-10-23 18:00   7.8   9.9    21  52.2  39.6  62.0   29.36   516
2021-10-23 17:00   6.0   8.9    23  51.1  42.2  71.2   29.37  1293
2021-10-23 16:00  14.6  17.7   346  52.0  41.4  66.8   29.36   854
2021-10-23 15:00  10.7  12.6   352  50.9  38.6  62.4   29.37   902
2021-10-23 14:00  12.2  14.4   345  51.3  41.1  67.9   29.37  1489
2021-10-23 13:00  15.7  17.5   311  49.1  43.1  79.6   29.38   852
2021-10-23 12:00   8.6   9.7   346  46.6  41.7  82.9   29.39   504
2021-10-23 11:00   5.6   6.6   317  47.3  40.7  77.6   29.38   579
2021-10-23 10:00   6.8   8.0     6  45.9  41.7  85.1   29.37   224
2021-10-23 09:00   3.7   4.5    48  43.7  40.3  87.5   29.36    79
2021-10-23 08:00   2.9   4.3    62  43.9  41.0  89.6   29.35     3
2021-10-23 07:00  13.6  15.2    22  48.4  38.1  67.4   29.34     2
2021-10-23 06:00   7.2   9.1   310  49.1  36.0  60.2   29.34     2
2021-10-23 05:00  10.9  11.7   321  49.1  35.9  60.0   29.34     2
2021-10-23 04:00  12.8  14.0   316  48.7  37.4  64.5   29.35     2
2021-10-23 03:00   4.1   5.1   126  45.3  40.9  84.3   29.35     2
2021-10-23 02:00   3.5   4.9   126  45.3  41.1  85.1   29.35     2
2021-10-23 01:00   3.9   4.7    82  45.9  39.9  79.3   29.35     2
2021-10-23 00:00   3.7   4.5    44  45.0  40.8  85.0   29.36     2
2021-10-22 23:00   3.9   4.5   129  45.1  41.2  85.8   29.37     2
2021-10-22 22:00   2.9   3.5    81  45.7  40.4  81.7   29.37     2
2021-10-22 21:00   5.6   6.8    40  45.0  40.8  85.3   29.38     2
2021-10-22 20:00   4.5   5.8    18  45.3  41.7  87.0   29.38     2
2021-10-22 19:00   3.1   3.5    40  46.0  42.1  86.0   29.38     3
2021-10-22 18:00   4.5   6.0    40  47.5  39.7  74.1   29.37    48
2021-10-22 17:00   4.5   5.4   315  49.3  39.9  69.9   29.38   302
2021-10-22 16:00   5.4   6.8   345  49.3  39.4  68.4   29.38   530
2021-10-22 15:00   6.2   7.4   321  48.9  41.3  74.6   29.39   325
2021-10-22 14:00   0.8   1.4    43  51.3  38.4  61.2   29.41   822
2021-10-22 13:00   2.5   3.3   118  49.1  37.8  64.6   29.42   933
2021-10-22 12:00   3.7   4.9   134  48.2  37.4  65.8   29.42   547
2021-10-22 11:00   4.1   5.6   112  46.4  36.2  67.3   29.42   390
2021-10-22 10:00   2.7   3.5   149  45.3  36.2  70.2   29.43   263
2021-10-22 09:00   4.1   5.4   144  45.1  36.6  71.8   29.42   221
2021-10-22 08:00   2.7   3.7    89  44.8  36.1  71.2   29.42     6
2021-10-22 07:00   4.1   5.6    75  44.4  37.9  77.5   29.42     2
2021-10-22 06:00   5.6   6.4    57  44.8  36.9  73.7   29.41     2
2021-10-22 05:00   6.2   7.4    59  44.8  37.1  74.2   29.40     2
2021-10-22 04:00   6.0   7.2    56  44.8  37.2  74.5   29.40     2
2021-10-22 03:00   5.8   6.8    58  45.1  37.3  73.7   29.40     2
2021-10-22 02:00   6.2   7.8    55  45.0  37.5  74.8   29.40     2
2021-10-22 01:00   7.4  10.1    67  45.7  37.3  72.1   29.41     2
2021-10-22 00:00   4.9   6.0    61  45.1  37.3  73.6   29.40     2
2021-10-21 23:00   7.8   9.7    60  44.4  37.2  75.5   29.39     2
2021-10-21 22:00   7.6  10.1    50  45.1  37.2  73.5   29.39     2
2021-10-21 21:00   8.6  11.5    34  46.0  37.1  70.8   29.36     2
2021-10-21 20:00   8.4  11.9    19  47.8  38.6  70.0   29.34     2
2021-10-21 19:00  12.1  17.9    25  49.1  40.4  71.6   29.31     4
2021-10-21 18:00  11.9  17.5    16  49.6  42.2  75.2   29.28    84
2021-10-21 17:00  17.3  24.7    14  50.5  46.4  85.4   29.23   110
2021-10-21 16:00  18.9  22.6    27  53.2  49.9  88.4   29.18   488
2021-10-21 15:00  11.3  12.8   235  56.5  54.1  91.7   29.12   205
2021-10-21 14:00  17.5  19.4   243  56.1  52.8  88.4   29.12   515
2021-10-21 13:00  19.1  21.6   269  56.5  52.8  87.2   29.14   217
2021-10-21 12:00  19.1  21.6   266  57.2  52.3  83.4   29.13   189
2021-10-21 11:00  18.7  20.0   274  57.6  51.5  80.1   29.14   505
2021-10-21 10:00  20.0  21.6   285  57.7  51.5  79.5   29.13   167
2021-10-21 09:00  18.9  22.6   283  58.6  52.3  79.2   29.12   115
2021-10-21 08:00  22.0  24.5   273  59.9  55.0  83.7   29.11     5
2021-10-21 07:00  15.7  17.9   260  62.4  58.8  87.7   29.11     2
2021-10-21 06:00  18.5  21.6   258  62.8  59.2  88.0   29.11     2
2021-10-21 05:00  18.1  21.4   245  63.1  60.0  89.4   29.12     2
2021-10-21 04:00  12.4  13.8   228  62.6  60.0  91.1   29.14     2
2021-10-21 03:00  13.8  15.6   194  62.6  59.8  90.3   29.16     2
2021-10-21 02:00  16.3  17.9   201  61.7  58.8  90.1   29.17     2
2021-10-21 01:00  18.5  21.0   191  61.2  57.6  88.0   29.22     2
2021-10-21 00:00  17.1  19.4   194  62.4  56.6  80.9   29.23     2
2021-10-20 23:00  12.6  15.4   203  61.5  58.0  88.2   29.28     2
2021-10-20 22:00   6.2   8.7   146  60.8  56.4  85.2   29.27     2
2021-10-20 21:00   6.0   8.0   169  61.5  55.4  80.2   29.28     2
2021-10-20 20:00   3.9   5.2   148  60.1  56.5  87.9   29.31     2
2021-10-20 19:00   2.5   3.7   128  61.0  56.9  86.3   29.31     5
2021-10-20 18:00   1.0   1.2   130  61.7  55.8  80.6   29.32    69
2021-10-20 17:00  11.5  12.4   189  61.7  57.0  84.2   29.33   355
2021-10-20 16:00   6.0   7.0   213  62.4  58.8  87.8   29.36   418
2021-10-20 15:00   8.0   9.1   214  65.1  57.6  76.4   29.36  1413
2021-10-20 14:00   7.8   8.6   219  62.8  56.7  80.3   29.38  1393
2021-10-20 13:00   7.8   8.7   202  65.5  57.0  73.6   29.40  1359
2021-10-20 12:00   8.4   9.1   218  63.1  56.3  78.2   29.42  1570
2021-10-20 11:00   6.8   7.8   232  61.7  55.6  80.0   29.43  1074
2021-10-20 10:00   7.4   8.0   237  61.3  55.3  80.4   29.43  1162
2021-10-20 09:00   5.2   5.8   240  61.3  55.4  80.5   29.43   627
2021-10-20 08:00   7.8   8.9   258  61.2  55.6  81.8   29.43     7
2021-10-20 07:00   7.6   8.9   242  61.3  55.2  80.1   29.43     2
2021-10-20 06:00  12.8  14.2   253  61.5  54.6  77.8   29.43     2
2021-10-20 05:00  11.9  12.8   258  61.7  55.3  79.4   29.43     2
2021-10-20 04:00  11.1  12.1   257  61.9  55.9  80.4   29.44     2
2021-10-20 03:00  11.7  12.2   245  61.9  57.0  83.9   29.43     2
2021-10-20 02:00  12.2  13.2   246  62.2  56.5  81.1   29.44     2
2021-10-20 01:00  11.9  12.6   247  62.2  56.8  82.0   29.43     2
2021-10-20 00:00  15.4  16.7   240  62.8  56.3  79.2   29.42     2
2021-10-19 23:00  16.3  17.7   235  63.1  55.8  76.8   29.42     2
2021-10-19 22:00  16.9  17.7   231  63.3  55.2  74.6   29.42     2
2021-10-19 21:00  14.6  15.4   234  63.0  55.5  76.3   29.42     2
2021-10-19 20:00  15.9  16.9   238  63.1  55.2  74.9   29.41     2
2021-10-19 19:00   9.1   9.9   190  61.5  58.2  88.6   29.41    16
2021-10-19 18:00   9.3  10.5   187  63.0  58.9  86.4   29.41   626
2021-10-19 17:00   9.5  10.3   191  64.4  58.6  81.1   29.42  1464
2021-10-19 16:00   8.9   9.7   198  65.7  57.8  75.5   29.43  1312
2021-10-19 15:00   8.9   9.9   222  64.0  58.7  82.4   29.44  1523
2021-10-19 14:00   8.4   8.7   215  64.8  58.4  79.5   29.44  1784
2021-10-19 13:00   5.6   6.2   226  62.2  56.7  81.8   29.46  1730
2021-10-19 12:00   8.4   8.9   239  61.2  57.0  85.9   29.47  1393
2021-10-19 11:00   6.6   6.8   231  61.2  57.5  87.6   29.46  1092
2021-10-19 10:00   2.5   3.1   180  58.3  54.5  87.0   29.46  1218
2021-10-19 09:00   4.3   5.2   123  53.2  51.4  93.5   29.45   730
2021-10-19 08:00   5.4   6.6   117  51.8  50.7  95.8   29.44    13
2021-10-19 07:00   5.6   6.8   157  51.8  50.4  94.8   29.45     2
2021-10-19 06:00   5.6   7.0   136  52.0  50.4  94.2   29.44     2
2021-10-19 05:00   5.4   6.2   162  50.9  48.9  92.9   29.44     2
2021-10-19 04:00   5.6   6.2   128  51.8  49.6  92.1   29.44     2
2021-10-19 03:00   4.7   5.6   147  51.4  49.0  91.3   29.44     2
2021-10-19 02:00   4.5   5.8   130  51.8  49.1  90.5   29.45     2
2021-10-19 01:00   5.1   6.0   153  52.7  49.8  89.8   29.45     2
2021-10-19 00:00   4.7   5.4   152  52.5  49.7  89.9   29.45     2
2021-10-18 23:00   4.9   5.4   166  53.4  50.1  88.5   29.45     2
2021-10-18 22:00   5.4   6.0   166  54.9  50.2  84.2   29.45     2
2021-10-18 21:00   5.1   6.0   173  57.2  50.6  78.2   29.44     2
2021-10-18 20:00   6.8   7.0   193  58.3  50.8  76.0   29.44     2